sensor_id;sensor_type;location;lat;lon;timestamp;temperature;humidity
7143;DHT22;3613;48.902;9.204;2023-07-28T00:06:31;16.00;99.90
7143;DHT22;3613;48.902;9.204;2023-07-28T00:08:57;16.20;99.90
7143;DHT22;3613;48.902;9.204;2023-07-28T00:11:23;16.20;99.90
7143;DHT22;3613;48.902;9.204;2023-07-28T00:18:42;16.30;99.90
7143;DHT22;3613;48.902;9.204;2023-07-28T00:23:34;16.00;99.90
7143;DHT22;3613;48.902;9.204;2023-07-28T00:26:02;16.70;99.90
7143;DHT22;3613;48.902;9.204;2023-07-28T00:30:55;15.70;99.90
7143;DHT22;3613;48.902;9.204;2023-07-28T00:33:23;16.40;99.90
7143;DHT22;3613;48.902;9.204;2023-07-28T00:35:49;15.80;99.90
7143;DHT22;3613;48.902;9.204;2023-07-28T00:38:17;16.00;99.90
7143;DHT22;3613;48.902;9.204;2023-07-28T00:40:47;15.90;99.90
7143;DHT22;3613;48.902;9.204;2023-07-28T00:43:13;16.10;99.90
7143;DHT22;3613;48.902;9.204;2023-07-28T00:48:11;15.90;99.90
7143;DHT22;3613;48.902;9.204;2023-07-28T00:53:04;15.70;99.90
7143;DHT22;3613;48.902;9.204;2023-07-28T00:55:34;15.80;99.90
7143;DHT22;3613;48.902;9.204;2023-07-28T01:00:28;15.80;99.90
7143;DHT22;3613;48.902;9.204;2023-07-28T01:05:32;15.80;99.90
7143;DHT22;3613;48.902;9.204;2023-07-28T01:08:06;15.70;99.90
7143;DHT22;3613;48.902;9.204;2023-07-28T01:15:28;16.00;99.90
7143;DHT22;3613;48.902;9.204;2023-07-28T01:20:24;15.40;99.90
7143;DHT22;3613;48.902;9.204;2023-07-28T01:23:20;15.30;99.90
7143;DHT22;3613;48.902;9.204;2023-07-28T01:26:08;15.80;99.90
7143;DHT22;3613;48.902;9.204;2023-07-28T01:31:05;15.60;99.90
7143;DHT22;3613;48.902;9.204;2023-07-28T01:33:31;15.60;99.90
7143;DHT22;3613;48.902;9.204;2023-07-28T01:38:29;15.50;99.90
7143;DHT22;3613;48.902;9.204;2023-07-28T01:40:55;15.40;99.90
7143;DHT22;3613;48.902;9.204;2023-07-28T01:48:14;14.80;99.90
7143;DHT22;3613;48.902;9.204;2023-07-28T01:50:44;15.10;99.90
7143;DHT22;3613;48.902;9.204;2023-07-28T01:58:02;15.10;99.90
7143;DHT22;3613;48.902;9.204;2023-07-28T02:05:25;15.50;99.90
7143;DHT22;3613;48.902;9.204;2023-07-28T02:10:17;15.40;99.90
7143;DHT22;3613;48.902;9.204;2023-07-28T02:15:14;14.90;99.90
7143;DHT22;3613;48.902;9.204;2023-07-28T02:17:40;15.30;99.90
7143;DHT22;3613;48.902;9.204;2023-07-28T02:24:58;15.30;99.90
7143;DHT22;3613;48.902;9.204;2023-07-28T02:27:27;15.60;99.90
7143;DHT22;3613;48.902;9.204;2023-07-28T02:32:19;15.40;99.90
7143;DHT22;3613;48.902;9.204;2023-07-28T02:37:11;15.00;99.90
7143;DHT22;3613;48.902;9.204;2023-07-28T02:42:07;15.50;99.90
7143;DHT22;3613;48.902;9.204;2023-07-28T02:46:59;15.40;99.90
7143;DHT22;3613;48.902;9.204;2023-07-28T02:51:50;15.20;99.90
7143;DHT22;3613;48.902;9.204;2023-07-28T02:56:42;15.70;99.90
7143;DHT22;3613;48.902;9.204;2023-07-28T03:01:33;15.50;99.90
7143;DHT22;3613;48.902;9.204;2023-07-28T03:04:02;15.50;99.90
7143;DHT22;3613;48.902;9.204;2023-07-28T03:08:54;15.30;99.90
7143;DHT22;3613;48.902;9.204;2023-07-28T03:11:22;15.60;99.90
7143;DHT22;3613;48.902;9.204;2023-07-28T03:16:18;15.60;99.90
7143;DHT22;3613;48.902;9.204;2023-07-28T03:26:07;15.20;99.90
7143;DHT22;3613;48.902;9.204;2023-07-28T03:28:37;15.60;99.90
7143;DHT22;3613;48.902;9.204;2023-07-28T03:31:03;15.70;99.90
7143;DHT22;3613;48.902;9.204;2023-07-28T03:38:27;15.60;99.90
7143;DHT22;3613;48.902;9.204;2023-07-28T03:40:56;15.70;99.90
7143;DHT22;3613;48.902;9.204;2023-07-28T03:48:16;15.40;99.90
7143;DHT22;3613;48.902;9.204;2023-07-28T03:53:07;15.60;99.90
7143;DHT22;3613;48.902;9.204;2023-07-28T03:57:59;15.50;99.90
7143;DHT22;3613;48.902;9.204;2023-07-28T04:05:17;15.70;99.90
7143;DHT22;3613;48.902;9.204;2023-07-28T04:12:37;18.30;99.90
7143;DHT22;3613;48.902;9.204;2023-07-28T04:17:29;16.10;99.90
7143;DHT22;3613;48.902;9.204;2023-07-28T04:24:47;15.70;99.90
7143;DHT22;3613;48.902;9.204;2023-07-28T04:27:14;16.00;99.90
7143;DHT22;3613;48.902;9.204;2023-07-28T04:29:40;16.40;99.90
7143;DHT22;3613;48.902;9.204;2023-07-28T04:32:08;16.00;99.90
7143;DHT22;3613;48.902;9.204;2023-07-28T04:34:41;16.00;99.90
7143;DHT22;3613;48.902;9.204;2023-07-28T04:44:29;16.20;99.90
7143;DHT22;3613;48.902;9.204;2023-07-28T04:49:21;16.30;99.90
7143;DHT22;3613;48.902;9.204;2023-07-28T04:59:10;15.90;99.90
7143;DHT22;3613;48.902;9.204;2023-07-28T05:01:38;15.70;99.90
7143;DHT22;3613;48.902;9.204;2023-07-28T05:08:58;16.30;99.90
7143;DHT22;3613;48.902;9.204;2023-07-28T05:11:24;16.50;99.90
7143;DHT22;3613;48.902;9.204;2023-07-28T05:26:06;17.10;99.90
7143;DHT22;3613;48.902;9.204;2023-07-28T05:28:34;16.60;99.90
7143;DHT22;3613;48.902;9.204;2023-07-28T05:31:05;16.60;99.90
7143;DHT22;3613;48.902;9.204;2023-07-28T05:33:33;16.70;99.90
7143;DHT22;3613;48.902;9.204;2023-07-28T05:36:08;16.80;99.90
7143;DHT22;3613;48.902;9.204;2023-07-28T05:41:00;16.80;99.90
7143;DHT22;3613;48.902;9.204;2023-07-28T05:43:27;17.40;99.90
7143;DHT22;3613;48.902;9.204;2023-07-28T05:45:57;17.20;99.90
7143;DHT22;3613;48.902;9.204;2023-07-28T05:50:53;17.70;99.90
7143;DHT22;3613;48.902;9.204;2023-07-28T05:53:20;17.30;99.90
7143;DHT22;3613;48.902;9.204;2023-07-28T05:55:49;17.20;99.90
7143;DHT22;3613;48.902;9.204;2023-07-28T06:00:43;17.70;99.90
7143;DHT22;3613;48.902;9.204;2023-07-28T06:03:12;17.60;99.90
7143;DHT22;3613;48.902;9.204;2023-07-28T06:05:40;17.40;99.90
7143;DHT22;3613;48.902;9.204;2023-07-28T06:25:08;17.10;99.90
7143;DHT22;3613;48.902;9.204;2023-07-28T06:30:04;17.70;99.90
7143;DHT22;3613;48.902;9.204;2023-07-28T06:32:33;17.50;99.90
7143;DHT22;3613;48.902;9.204;2023-07-28T06:37:27;17.50;99.90
7143;DHT22;3613;48.902;9.204;2023-07-28T06:44:50;17.70;99.90
7143;DHT22;3613;48.902;9.204;2023-07-28T06:47:16;18.00;99.90
7143;DHT22;3613;48.902;9.204;2023-07-28T06:54:39;18.20;99.90
7143;DHT22;3613;48.902;9.204;2023-07-28T06:57:05;18.50;99.90
7143;DHT22;3613;48.902;9.204;2023-07-28T07:01:58;18.10;99.90
7143;DHT22;3613;48.902;9.204;2023-07-28T07:14:07;19.10;99.90
7143;DHT22;3613;48.902;9.204;2023-07-28T07:16:34;18.80;99.90
7143;DHT22;3613;48.902;9.204;2023-07-28T07:19:00;18.90;99.90
7143;DHT22;3613;48.902;9.204;2023-07-28T07:21:27;18.90;99.90
7143;DHT22;3613;48.902;9.204;2023-07-28T07:28:45;18.90;99.90
7143;DHT22;3613;48.902;9.204;2023-07-28T07:31:14;18.80;99.90
7143;DHT22;3613;48.902;9.204;2023-07-28T07:33:42;19.10;99.90
7143;DHT22;3613;48.902;9.204;2023-07-28T07:36:18;19.60;99.90
7143;DHT22;3613;48.902;9.204;2023-07-28T07:38:45;19.80;43.90
7143;DHT22;3613;48.902;9.204;2023-07-28T07:41:16;20.00;1.00
7143;DHT22;3613;48.902;9.204;2023-07-28T07:46:12;20.00;1.00
7143;DHT22;3613;48.902;9.204;2023-07-28T07:48:42;20.40;1.00
7143;DHT22;3613;48.902;9.204;2023-07-28T07:51:11;20.50;1.00
7143;DHT22;3613;48.902;9.204;2023-07-28T07:56:06;20.50;1.00
7143;DHT22;3613;48.902;9.204;2023-07-28T07:58:32;20.60;1.00
7143;DHT22;3613;48.902;9.204;2023-07-28T08:03:24;20.50;1.00
7143;DHT22;3613;48.902;9.204;2023-07-28T08:05:52;20.80;1.00
7143;DHT22;3613;48.902;9.204;2023-07-28T08:10:45;20.40;1.00
7143;DHT22;3613;48.902;9.204;2023-07-28T08:15:37;21.00;1.00
7143;DHT22;3613;48.902;9.204;2023-07-28T08:20:31;20.90;1.00
7143;DHT22;3613;48.902;9.204;2023-07-28T08:32:42;21.40;1.00
7143;DHT22;3613;48.902;9.204;2023-07-28T08:35:08;21.30;1.00
7143;DHT22;3613;48.902;9.204;2023-07-28T08:37:36;21.50;99.90
7143;DHT22;3613;48.902;9.204;2023-07-28T08:42:36;22.00;99.90
7143;DHT22;3613;48.902;9.204;2023-07-28T08:45:03;21.60;1.00
7143;DHT22;3613;48.902;9.204;2023-07-28T08:47:36;22.10;1.00
7143;DHT22;3613;48.902;9.204;2023-07-28T08:50:04;22.10;99.90
7143;DHT22;3613;48.902;9.204;2023-07-28T08:52:33;22.50;99.90
7143;DHT22;3613;48.902;9.204;2023-07-28T08:55:02;21.90;99.90
7143;DHT22;3613;48.902;9.204;2023-07-28T08:57:28;21.40;99.90
7143;DHT22;3613;48.902;9.204;2023-07-28T08:59:56;21.50;99.90
7143;DHT22;3613;48.902;9.204;2023-07-28T09:07:14;21.90;99.90
7143;DHT22;3613;48.902;9.204;2023-07-28T09:09:40;23.00;1.00
7143;DHT22;3613;48.902;9.204;2023-07-28T09:12:07;24.00;1.00
7143;DHT22;3613;48.902;9.204;2023-07-28T09:17:12;25.60;99.90
7143;DHT22;3613;48.902;9.204;2023-07-28T09:19:53;27.40;1.00
7143;DHT22;3613;48.902;9.204;2023-07-28T09:24:48;28.00;1.00
7143;DHT22;3613;48.902;9.204;2023-07-28T09:27:25;28.60;99.90
7143;DHT22;3613;48.902;9.204;2023-07-28T09:29:53;28.80;1.00
7143;DHT22;3613;48.902;9.204;2023-07-28T09:32:31;28.30;1.00
7143;DHT22;3613;48.902;9.204;2023-07-28T09:35:13;28.00;99.90
7143;DHT22;3613;48.902;9.204;2023-07-28T09:37:43;27.90;99.90
7143;DHT22;3613;48.902;9.204;2023-07-28T09:40:14;27.70;99.90
7143;DHT22;3613;48.902;9.204;2023-07-28T09:42:44;27.80;1.00
7143;DHT22;3613;48.902;9.204;2023-07-28T09:45:13;28.40;1.00
7143;DHT22;3613;48.902;9.204;2023-07-28T09:47:47;29.10;1.00
7143;DHT22;3613;48.902;9.204;2023-07-28T09:50:15;29.80;68.10
7143;DHT22;3613;48.902;9.204;2023-07-28T09:52:43;30.20;1.00
7143;DHT22;3613;48.902;9.204;2023-07-28T09:55:10;30.30;99.90
7143;DHT22;3613;48.902;9.204;2023-07-28T09:57:39;30.80;1.00
7143;DHT22;3613;48.902;9.204;2023-07-28T10:00:08;30.70;99.90
7143;DHT22;3613;48.902;9.204;2023-07-28T10:02:36;29.60;1.00
7143;DHT22;3613;48.902;9.204;2023-07-28T10:15:03;28.20;1.00
7143;DHT22;3613;48.902;9.204;2023-07-28T10:17:34;28.00;99.90
7143;DHT22;3613;48.902;9.204;2023-07-28T10:20:03;27.70;1.00
7143;DHT22;3613;48.902;9.204;2023-07-28T10:22:43;27.60;1.00
7143;DHT22;3613;48.902;9.204;2023-07-28T10:27:44;28.00;1.00
7143;DHT22;3613;48.902;9.204;2023-07-28T10:30:11;27.60;1.00
7143;DHT22;3613;48.902;9.204;2023-07-28T10:32:42;27.30;99.90
7143;DHT22;3613;48.902;9.204;2023-07-28T10:40:34;25.70;99.90
7143;DHT22;3613;48.902;9.204;2023-07-28T10:47:59;24.90;1.00
7143;DHT22;3613;48.902;9.204;2023-07-28T11:02:50;24.10;1.00
7143;DHT22;3613;48.902;9.204;2023-07-28T11:05:26;23.60;1.00
7143;DHT22;3613;48.902;9.204;2023-07-28T11:10:19;23.70;1.00
7143;DHT22;3613;48.902;9.204;2023-07-28T11:12:48;24.00;99.90
7143;DHT22;3613;48.902;9.204;2023-07-28T11:15:17;24.00;1.00
7143;DHT22;3613;48.902;9.204;2023-07-28T11:25:12;23.60;58.50
7143;DHT22;3613;48.902;9.204;2023-07-28T11:27:39;23.90;1.00
7143;DHT22;3613;48.902;9.204;2023-07-28T11:30:07;23.90;99.90
7143;DHT22;3613;48.902;9.204;2023-07-28T11:35:12;24.00;1.00
7143;DHT22;3613;48.902;9.204;2023-07-28T11:43:06;24.80;99.90
7143;DHT22;3613;48.902;9.204;2023-07-28T11:48:02;25.30;1.00
7143;DHT22;3613;48.902;9.204;2023-07-28T11:50:31;26.10;94.70
7143;DHT22;3613;48.902;9.204;2023-07-28T12:03:12;26.80;1.00
7143;DHT22;3613;48.902;9.204;2023-07-28T12:05:58;27.10;1.00
7143;DHT22;3613;48.902;9.204;2023-07-28T12:08:37;27.10;27.50
7143;DHT22;3613;48.902;9.204;2023-07-28T12:11:12;26.90;1.00
7143;DHT22;3613;48.902;9.204;2023-07-28T12:21:24;25.50;99.90
7143;DHT22;3613;48.902;9.204;2023-07-28T12:26:18;24.60;1.00
7143;DHT22;3613;48.902;9.204;2023-07-28T12:31:13;24.60;99.90
7143;DHT22;3613;48.902;9.204;2023-07-28T12:33:39;23.90;1.00
7143;DHT22;3613;48.902;9.204;2023-07-28T12:36:07;23.80;1.00
7143;DHT22;3613;48.902;9.204;2023-07-28T12:41:01;22.80;1.00
7143;DHT22;3613;48.902;9.204;2023-07-28T12:43:26;23.00;1.00
7143;DHT22;3613;48.902;9.204;2023-07-28T12:45:56;22.60;1.00
7143;DHT22;3613;48.902;9.204;2023-07-28T12:48:27;22.60;99.90
7143;DHT22;3613;48.902;9.204;2023-07-28T12:50:52;23.30;1.00
7143;DHT22;3613;48.902;9.204;2023-07-28T12:55:46;23.60;99.90
7143;DHT22;3613;48.902;9.204;2023-07-28T13:00:40;25.00;1.00
7143;DHT22;3613;48.902;9.204;2023-07-28T13:03:06;24.90;99.90
7143;DHT22;3613;48.902;9.204;2023-07-28T13:08:01;24.40;1.00
7143;DHT22;3613;48.902;9.204;2023-07-28T13:12:55;23.80;91.30
7143;DHT22;3613;48.902;9.204;2023-07-28T13:17:47;23.20;1.00
7143;DHT22;3613;48.902;9.204;2023-07-28T13:32:33;21.30;1.00
7143;DHT22;3613;48.902;9.204;2023-07-28T13:39:53;21.40;99.90
7143;DHT22;3613;48.902;9.204;2023-07-28T13:44:54;21.10;1.00
7143;DHT22;3613;48.902;9.204;2023-07-28T13:47:22;20.70;1.00
7143;DHT22;3613;48.902;9.204;2023-07-28T13:54:44;20.50;1.00
7143;DHT22;3613;48.902;9.204;2023-07-28T13:59:37;20.10;1.00
7143;DHT22;3613;48.902;9.204;2023-07-28T14:02:02;20.20;13.10
7143;DHT22;3613;48.902;9.204;2023-07-28T14:04:28;20.40;72.40
7143;DHT22;3613;48.902;9.204;2023-07-28T14:11:48;19.90;99.90
7143;DHT22;3613;48.902;9.204;2023-07-28T14:14:13;19.40;99.90
7143;DHT22;3613;48.902;9.204;2023-07-28T14:23:59;18.90;99.90
7143;DHT22;3613;48.902;9.204;2023-07-28T14:28:51;19.30;99.90
7143;DHT22;3613;48.902;9.204;2023-07-28T14:36:09;19.40;99.90
7143;DHT22;3613;48.902;9.204;2023-07-28T14:43:31;19.70;99.90
7143;DHT22;3613;48.902;9.204;2023-07-28T14:48:22;19.90;99.90
7143;DHT22;3613;48.902;9.204;2023-07-28T14:53:33;20.50;99.90
7143;DHT22;3613;48.902;9.204;2023-07-28T14:56:00;20.40;99.90
7143;DHT22;3613;48.902;9.204;2023-07-28T14:58:27;20.10;99.90
7143;DHT22;3613;48.902;9.204;2023-07-28T15:03:20;20.40;99.90
7143;DHT22;3613;48.902;9.204;2023-07-28T15:05:48;20.00;99.90
7143;DHT22;3613;48.902;9.204;2023-07-28T15:10:40;19.70;99.90
7143;DHT22;3613;48.902;9.204;2023-07-28T15:13:06;20.60;99.90
7143;DHT22;3613;48.902;9.204;2023-07-28T15:17:58;20.40;99.90
7143;DHT22;3613;48.902;9.204;2023-07-28T15:22:49;20.30;99.90
7143;DHT22;3613;48.902;9.204;2023-07-28T15:32:39;20.60;99.90
7143;DHT22;3613;48.902;9.204;2023-07-28T15:37:30;20.40;99.90
7143;DHT22;3613;48.902;9.204;2023-07-28T15:39:57;20.70;99.90
7143;DHT22;3613;48.902;9.204;2023-07-28T15:44:50;19.90;99.90
7143;DHT22;3613;48.902;9.204;2023-07-28T15:54:40;20.30;99.90
7143;DHT22;3613;48.902;9.204;2023-07-28T16:02:01;20.30;99.90
7143;DHT22;3613;48.902;9.204;2023-07-28T16:16:39;19.70;99.90
7143;DHT22;3613;48.902;9.204;2023-07-28T16:28:52;19.80;99.90
7143;DHT22;3613;48.902;9.204;2023-07-28T16:45:55;20.10;99.90
7143;DHT22;3613;48.902;9.204;2023-07-28T16:50:52;20.50;99.90
7143;DHT22;3613;48.902;9.204;2023-07-28T16:55:45;20.80;99.90
7143;DHT22;3613;48.902;9.204;2023-07-28T17:00:37;19.80;99.90
7143;DHT22;3613;48.902;9.204;2023-07-28T17:17:48;20.50;99.90
7143;DHT22;3613;48.902;9.204;2023-07-28T17:25:06;20.40;99.90
7143;DHT22;3613;48.902;9.204;2023-07-28T17:39:50;20.40;99.90
7143;DHT22;3613;48.902;9.204;2023-07-28T17:52:04;20.00;99.90
7143;DHT22;3613;48.902;9.204;2023-07-28T18:09:14;19.70;99.90
7143;DHT22;3613;48.902;9.204;2023-07-28T18:16:32;20.30;99.90
7143;DHT22;3613;48.902;9.204;2023-07-28T19:17:36;18.60;99.90
7143;DHT22;3613;48.902;9.204;2023-07-28T19:29:48;18.90;99.90
7143;DHT22;3613;48.902;9.204;2023-07-28T19:34:42;19.00;99.90
7143;DHT22;3613;48.902;9.204;2023-07-28T20:04:06;18.70;99.90
7143;DHT22;3613;48.902;9.204;2023-07-28T20:11:27;18.10;99.90
7143;DHT22;3613;48.902;9.204;2023-07-28T20:26:10;17.50;99.90
7143;DHT22;3613;48.902;9.204;2023-07-28T20:31:01;18.10;99.90
7143;DHT22;3613;48.902;9.204;2023-07-28T21:10:19;18.00;99.90
7143;DHT22;3613;48.902;9.204;2023-07-28T21:12:47;17.50;99.90
7143;DHT22;3613;48.902;9.204;2023-07-28T21:15:13;17.50;99.90
7143;DHT22;3613;48.902;9.204;2023-07-28T21:22:33;17.30;99.90
7143;DHT22;3613;48.902;9.204;2023-07-28T21:27:24;17.70;99.90
7143;DHT22;3613;48.902;9.204;2023-07-28T21:39:39;16.90;99.90
7143;DHT22;3613;48.902;9.204;2023-07-28T21:47:06;16.70;99.90
7143;DHT22;3613;48.902;9.204;2023-07-28T21:54:27;17.20;99.90
7143;DHT22;3613;48.902;9.204;2023-07-28T22:11:32;17.20;99.90
7143;DHT22;3613;48.902;9.204;2023-07-28T22:38:26;17.70;99.90
7143;DHT22;3613;48.902;9.204;2023-07-28T22:40:51;16.90;99.90
7143;DHT22;3613;48.902;9.204;2023-07-28T22:43:22;16.90;99.90
7143;DHT22;3613;48.902;9.204;2023-07-28T22:58:08;17.30;99.90
7143;DHT22;3613;48.902;9.204;2023-07-28T23:03:05;17.30;99.90
7143;DHT22;3613;48.902;9.204;2023-07-28T23:17:59;17.40;99.90
7143;DHT22;3613;48.902;9.204;2023-07-28T23:25:19;17.80;99.90
7143;DHT22;3613;48.902;9.204;2023-07-28T23:30:15;17.60;99.90
7143;DHT22;3613;48.902;9.204;2023-07-28T23:35:07;17.30;99.90
7143;DHT22;3613;48.902;9.204;2023-07-28T23:37:38;16.70;99.90
7143;DHT22;3613;48.902;9.204;2023-07-28T23:40:03;16.60;99.90
7143;DHT22;3613;48.902;9.204;2023-07-28T23:47:26;16.80;99.90
7143;DHT22;3613;48.902;9.204;2023-07-28T23:52:20;16.80;99.90
7143;DHT22;3613;48.902;9.204;2023-07-28T23:54:46;16.40;99.90
7143;DHT22;3613;48.902;9.204;2023-07-28T23:59:37;16.90;99.90
